Time;durP1;ratioP1;P1;durP2;ratioP2;P2;SDS_P1;SDS_P2;PMS_P1;PMS_P2;Temp;Humidity;BMP_temperature;BMP_pressure;BME280_temperature;BME280_humidity;BME280_pressure;Samples;Min_cycle;Max_cycle;Signal;HPM_P1;HPM_P2
2023/03/02 00:02:07;;;;;;;;;;;;;;;10.29;42.69;101633.47;4922218;28;99389;-69
2023/03/02 00:04:43;;;;;;;;;;;;;;;10.27;41.96;101629.41;4924108;28;97893;-69
2023/03/02 00:07:11;;;;;;;;;;;;;;;10.25;42.51;101639.56;4936849;28;99704;-67
2023/03/02 00:09:37;;;;;;;;;;;;;;;10.24;42.15;101637.91;4910485;28;98380;-67
2023/03/02 00:12:04;;;;;;;;;;;;;;;10.21;42.67;101644.59;4921615;28;98875;-67
2023/03/02 00:14:30;;;;;;;;;;;;;;;10.20;42.28;101640.25;4910371;28;98324;-67
2023/03/02 00:16:57;;;;;;;;;;;;;;;10.18;42.29;101645.09;4919615;28;98493;-69
2023/03/02 00:19:23;;;;;;;;;;;;;;;10.16;42.86;101644.47;4927700;28;98004;-69
2023/03/02 00:21:49;;;;;;;;;;;;;;;10.14;42.58;101638.53;4923076;28;98065;-68
2023/03/02 00:24:16;;;;;;;;;;;;;;;10.14;42.25;101634.97;4921123;28;98047;-67
2023/03/02 00:26:42;;;;;;;;;;;;;;;10.13;42.68;101633.34;4907390;28;99853;-67
2023/03/02 00:29:09;;;;;;;;;;;;;;;10.09;42.06;101628.44;4936329;28;97976;-67
2023/03/02 00:31:36;;;;;;;;;;;;;;;10.08;42.34;101636.75;4922329;28;98643;-67
2023/03/02 00:34:03;;;;;;;;;;;;;;;10.07;42.49;101635.13;4904765;28;99669;-67
2023/03/02 00:36:29;;;;;;;;;;;;;;;10.06;42.57;101637.00;4919379;28;98232;-68
2023/03/02 00:38:56;;;;;;;;;;;;;;;10.04;42.19;101628.31;4926256;28;98026;-66
2023/03/02 00:41:22;;;;;;;;;;;;;;;10.02;42.22;101626.91;4906126;28;99513;-67
2023/03/02 00:43:49;;;;;;;;;;;;;;;10.01;41.99;101630.66;4913981;28;98282;-67
2023/03/02 00:46:21;;;;;;;;;;;;;;;10.00;42.10;101624.47;4929847;28;98451;-67
2023/03/02 00:48:47;;;;;;;;;;;;;;;10.00;42.37;101620.97;4921040;28;98081;-67
2023/03/02 00:51:14;;;;;;;;;;;;;;;9.97;42.18;101614.16;4938077;28;99216;-68
2023/03/02 00:53:41;;;;;;;;;;;;;;;9.96;42.71;101614.41;4924487;28;98285;-67
2023/03/02 00:56:07;;;;;;;;;;;;;;;9.94;42.06;101605.72;4906342;28;99052;-67
2023/03/02 00:58:33;;;;;;;;;;;;;;;9.92;42.98;101611.34;4922768;28;98304;-67
2023/03/02 01:01:04;;;;;;;;;;;;;;;9.91;42.26;101603.53;4906911;28;98356;-67
2023/03/02 01:03:31;;;;;;;;;;;;;;;9.90;41.90;101609.94;4911098;28;98200;-67
2023/03/02 01:05:57;;;;;;;;;;;;;;;9.87;42.21;101608.56;4932301;28;98475;-68
2023/03/02 01:08:24;;;;;;;;;;;;;;;9.84;42.30;101603.63;4905897;28;97999;-67
2023/03/02 01:10:51;;;;;;;;;;;;;;;9.84;42.54;101607.13;4934654;28;99163;-67
2023/03/02 01:13:18;;;;;;;;;;;;;;;9.82;42.54;101600.34;4913205;28;97874;-67
2023/03/02 01:15:45;;;;;;;;;;;;;;;9.80;42.17;101597.06;4927373;28;99125;-69
2023/03/02 01:18:11;;;;;;;;;;;;;;;9.79;41.94;101596.25;4911510;28;98246;-67
2023/03/02 01:20:37;;;;;;;;;;;;;;;9.77;43.00;101598.34;4910116;28;98295;-69
2023/03/02 01:23:04;;;;;;;;;;;;;;;9.76;42.58;101596.72;4926710;28;97990;-69
2023/03/02 01:25:30;;;;;;;;;;;;;;;9.74;41.99;101592.63;4914722;28;98964;-68
2023/03/02 01:27:57;;;;;;;;;;;;;;;9.72;42.11;101583.97;4910221;28;98007;-67
2023/03/02 01:30:23;;;;;;;;;;;;;;;9.71;42.46;101585.03;4907803;28;98517;-69
2023/03/02 01:32:49;;;;;;;;;;;;;;;9.70;41.80;101581.50;4926397;28;99960;-67
2023/03/02 01:35:15;;;;;;;;;;;;;;;9.66;42.17;101572.25;4910032;28;98186;-70
2023/03/02 01:37:42;;;;;;;;;;;;;;;9.68;42.30;101569.34;4911889;28;98466;-70
2023/03/02 01:40:09;;;;;;;;;;;;;;;9.65;42.45;101562.53;4912134;28;98583;-68
2023/03/02 01:42:44;;;;;;;;;;;;;;;9.64;41.90;101562.78;4910886;28;97982;-68
2023/03/02 01:45:53;;;;;;;;;;;;;;;9.62;42.55;101564.88;4914711;28;100309;-69
2023/03/02 01:48:30;;;;;;;;;;;;;;;9.61;42.07;101563.25;4938583;28;98463;-67
2023/03/02 01:50:56;;;;;;;;;;;;;;;9.59;42.30;101558.94;4913677;28;98214;-67
2023/03/02 01:53:23;;;;;;;;;;;;;;;9.57;42.02;101554.81;4910556;28;98276;-68
2023/03/02 01:55:50;;;;;;;;;;;;;;;9.57;42.71;101554.81;4936436;28;99146;-67
2023/03/02 01:58:16;;;;;;;;;;;;;;;9.56;42.51;101553.19;4954101;28;99008;-69
2023/03/02 02:00:42;;;;;;;;;;;;;;;9.54;42.33;101548.03;4911719;28;99556;-67
2023/03/02 02:03:12;;;;;;;;;;;;;;;9.54;42.84;101552.59;4906909;28;100092;-68
2023/03/02 02:05:40;;;;;;;;;;;;;;;9.52;42.60;101543.94;4944539;28;99131;-67
2023/03/02 02:08:07;;;;;;;;;;;;;;;9.50;42.16;101546.84;4942148;28;99641;-67
2023/03/02 02:10:33;;;;;;;;;;;;;;;9.49;42.07;101547.09;4910544;28;98580;-69
2023/03/02 02:13:00;;;;;;;;;;;;;;;9.48;42.67;101543.59;4903827;28;98449;-67
2023/03/02 02:15:26;;;;;;;;;;;;;;;9.47;41.93;101539.25;4917855;28;98526;-68
2023/03/02 02:17:54;;;;;;;;;;;;;;;9.45;42.55;101541.34;4891827;28;98188;-67
2023/03/02 02:20:26;;;;;;;;;;;;;;;9.45;42.42;101535.16;4892912;28;100627;-67
2023/03/02 02:23:37;;;;;;;;;;;;;;;9.45;42.23;101532.47;4933773;28;98013;-67
2023/03/02 02:26:09;;;;;;;;;;;;;;;9.41;41.84;101524.03;4888607;28;98025;-67
2023/03/02 02:28:56;;;;;;;;;;;;;;;9.38;42.30;101524.50;4920932;28;99646;-68
2023/03/02 02:31:31;;;;;;;;;;;;;;;9.39;42.63;101520.75;4905852;28;98364;-67
2023/03/02 02:34:21;;;;;;;;;;;;;;;9.37;42.26;101528.25;4922936;28;100111;-66
2023/03/02 02:36:48;;;;;;;;;;;;;;;9.35;42.49;101533.03;4897283;28;98216;-69
2023/03/02 02:39:29;;;;;;;;;;;;;;;9.33;42.49;101524.38;4886453;28;99415;-67
2023/03/02 02:42:00;;;;;;;;;;;;;;;9.31;42.46;101530.00;4893565;28;98492;-67
2023/03/02 02:44:26;;;;;;;;;;;;;;;9.30;42.45;101527.53;4919230;28;98250;-69
2023/03/02 02:46:52;;;;;;;;;;;;;;;9.28;42.86;101532.34;4889955;28;98073;-67
2023/03/02 02:49:33;;;;;;;;;;;;;;;9.25;42.10;101527.44;4891965;28;98045;-67
2023/03/02 02:52:00;;;;;;;;;;;;;;;9.25;42.06;101525.56;4917406;28;98259;-67
2023/03/02 02:54:27;;;;;;;;;;;;;;;9.24;42.14;101526.63;4904920;28;98077;-68
2023/03/02 02:56:54;;;;;;;;;;;;;;;9.22;42.43;101528.69;4890388;28;98262;-67
2023/03/02 02:59:30;;;;;;;;;;;;;;;9.22;42.83;101525.19;4917636;28;98555;-69
2023/03/02 03:01:56;;;;;;;;;;;;;;;9.20;42.56;101519.25;4918342;28;100783;-68
2023/03/02 03:04:28;;;;;;;;;;;;;;;9.20;41.99;101528.13;4903702;28;98159;-67
2023/03/02 03:07:04;;;;;;;;;;;;;;;9.20;42.52;101524.63;4909406;28;98033;-67
2023/03/02 03:09:30;;;;;;;;;;;;;;;9.19;42.02;101525.66;4890649;28;100017;-67
2023/03/02 03:12:16;;;;;;;;;;;;;;;9.17;42.28;101525.91;4924601;28;100176;-67
2023/03/02 03:14:43;;;;;;;;;;;;;;;9.16;42.00;101518.06;4924328;28;99243;-69
2023/03/02 03:17:12;;;;;;;;;;;;;;;9.15;42.37;101521.78;4921983;28;98245;-68
2023/03/02 03:19:42;;;;;;;;;;;;;;;9.15;41.99;101532.56;4910464;28;98076;-68
2023/03/02 03:22:12;;;;;;;;;;;;;;;9.11;42.23;101526.81;4909179;28;98032;-69
2023/03/02 03:24:38;;;;;;;;;;;;;;;9.12;42.54;101517.72;4908936;28;98170;-68
2023/03/02 03:27:05;;;;;;;;;;;;;;;9.11;41.78;101516.06;4909757;28;98870;-68
2023/03/02 03:29:31;;;;;;;;;;;;;;;9.10;42.61;101514.41;4924867;28;97992;-69
2023/03/02 03:31:58;;;;;;;;;;;;;;;9.09;42.08;101518.16;4935551;28;98331;-68
2023/03/02 03:34:24;;;;;;;;;;;;;;;9.08;42.58;101520.03;4928518;28;99755;-68
2023/03/02 03:36:51;;;;;;;;;;;;;;;9.07;42.43;101523.75;4925458;28;98104;-68
2023/03/02 03:39:17;;;;;;;;;;;;;;;9.06;42.18;101530.19;4926616;28;100612;-67
2023/03/02 03:41:44;;;;;;;;;;;;;;;9.05;42.31;101514.31;4907051;28;98334;-69
2023/03/02 03:44:10;;;;;;;;;;;;;;;9.04;42.03;101529.63;4920692;28;100237;-68
2023/03/02 03:46:36;;;;;;;;;;;;;;;9.02;42.79;101517.44;4922173;28;98161;-68
2023/03/02 03:49:03;;;;;;;;;;;;;;;9.02;42.82;101520.13;4921415;28;98073;-69
2023/03/02 03:51:33;;;;;;;;;;;;;;;9.00;42.18;101517.69;4903411;28;98113;-68
2023/03/02 03:54:01;;;;;;;;;;;;;;;9.00;42.18;101519.53;4906926;28;100004;-68
2023/03/02 03:56:28;;;;;;;;;;;;;;;8.99;42.66;101515.22;4942730;28;98289;-69
2023/03/02 03:59:05;;;;;;;;;;;;;;;8.98;42.38;101517.09;4909677;28;98202;-68
2023/03/02 04:01:39;;;;;;;;;;;;;;;8.96;42.27;101516.53;4923498;28;98860;-68
2023/03/02 04:04:07;;;;;;;;;;;;;;;8.94;42.14;101518.59;4942971;28;98368;-68
2023/03/02 04:06:33;;;;;;;;;;;;;;;8.94;41.98;101515.91;4906520;28;97910;-68
2023/03/02 04:09:03;;;;;;;;;;;;;;;8.93;42.53;101519.66;4908232;28;98085;-66
2023/03/02 04:11:37;;;;;;;;;;;;;;;8.92;42.47;101515.34;4938359;28;98638;-67
2023/03/02 04:14:04;;;;;;;;;;;;;;;8.92;41.95;101512.66;4938048;28;98240;-67
2023/03/02 04:16:30;;;;;;;;;;;;;;;8.91;42.47;101510.19;4921398;28;98244;-68
2023/03/02 04:18:57;;;;;;;;;;;;;;;8.89;42.26;101507.72;4908620;28;98072;-67
2023/03/02 04:21:23;;;;;;;;;;;;;;;8.89;42.66;101514.97;4918847;28;102438;-69
2023/03/02 04:23:49;;;;;;;;;;;;;;;8.88;42.47;101507.94;4908380;28;98063;-69
2023/03/02 04:26:15;;;;;;;;;;;;;;;8.88;42.23;101510.63;4906324;28;98920;-69
2023/03/02 04:28:42;;;;;;;;;;;;;;;8.87;42.10;101509.81;4920076;28;97972;-68
2023/03/02 04:31:09;;;;;;;;;;;;;;;8.86;41.88;101513.56;4905940;28;98030;-68
2023/03/02 04:33:35;;;;;;;;;;;;;;;8.85;42.79;101503.88;4910764;28;98555;-69
2023/03/02 04:36:02;;;;;;;;;;;;;;;8.83;42.27;101503.25;4933209;28;97999;-68
2023/03/02 04:38:28;;;;;;;;;;;;;;;8.82;42.10;101501.63;4903919;28;98415;-68
2023/03/02 04:40:58;;;;;;;;;;;;;;;8.80;42.39;101495.66;4925927;28;98126;-68
2023/03/02 04:43:24;;;;;;;;;;;;;;;8.79;41.84;101497.53;4903671;28;98211;-67
2023/03/02 04:45:51;;;;;;;;;;;;;;;8.78;42.05;101497.75;4920886;28;99567;-69
2023/03/02 04:48:17;;;;;;;;;;;;;;;8.80;41.84;101495.66;4910512;28;97977;-70
2023/03/02 04:50:43;;;;;;;;;;;;;;;8.80;42.39;101496.50;4906331;28;107127;-68
2023/03/02 04:53:10;;;;;;;;;;;;;;;8.82;42.24;101490.88;4911351;28;121112;-67
2023/03/02 04:55:36;;;;;;;;;;;;;;;8.84;42.18;101492.28;4940960;28;98196;-68
2023/03/02 04:58:02;;;;;;;;;;;;;;;8.89;42.25;101496.16;4924605;28;97888;-67
2023/03/02 05:00:28;;;;;;;;;;;;;;;8.92;42.48;101499.22;4927737;28;99327;-67
2023/03/02 05:02:54;;;;;;;;;;;;;;;8.96;41.97;101505.75;4921154;28;126125;-69
2023/03/02 05:05:22;;;;;;;;;;;;;;;8.99;42.56;101494.53;4903727;28;104263;-67
2023/03/02 05:07:48;;;;;;;;;;;;;;;9.04;42.30;101496.53;4926343;28;97960;-67
2023/03/02 05:10:14;;;;;;;;;;;;;;;9.07;42.47;101496.06;4904621;28;99048;-67
2023/03/02 05:15:27;;;;;;;;;;;;;;;9.14;42.44;101491.38;4925609;28;97890;-69
2023/03/02 05:17:53;;;;;;;;;;;;;;;9.17;42.03;101496.31;4913892;28;97886;-68
2023/03/02 05:20:19;;;;;;;;;;;;;;;9.18;42.05;101497.13;4904769;28;107345;-70
2023/03/02 05:22:45;;;;;;;;;;;;;;;9.22;42.29;101499.09;4923385;28;100027;-69
2023/03/02 05:25:11;;;;;;;;;;;;;;;9.24;42.31;101494.31;4908503;28;122556;-69
2023/03/02 05:27:37;;;;;;;;;;;;;;;9.27;42.44;101495.72;4938113;28;98304;-69
2023/03/02 05:30:05;;;;;;;;;;;;;;;9.29;41.79;101499.81;4921598;28;99131;-68
2023/03/02 05:32:30;;;;;;;;;;;;;;;9.29;41.90;101490.94;4923472;28;97989;-67
2023/03/02 05:34:56;;;;;;;;;;;;;;;9.33;42.07;101497.47;4920917;28;128048;-67
2023/03/02 05:37:23;;;;;;;;;;;;;;;9.34;42.19;101489.16;4906740;28;117927;-67
2023/03/02 05:39:49;;;;;;;;;;;;;;;9.38;41.97;101494.09;4923687;28;99143;-69
2023/03/02 05:42:15;;;;;;;;;;;;;;;9.41;42.48;101490.94;4918915;28;103284;-69
2023/03/02 05:44:41;;;;;;;;;;;;;;;9.42;42.02;101488.00;4915364;28;98797;-70
2023/03/02 05:47:07;;;;;;;;;;;;;;;9.44;42.49;101487.78;4903654;28;119988;-67
2023/03/02 05:49:33;;;;;;;;;;;;;;;9.47;41.90;101484.59;4907115;28;98009;-68
2023/03/02 05:51:59;;;;;;;;;;;;;;;9.49;42.05;101485.19;4903485;28;128029;-67
2023/03/02 05:54:25;;;;;;;;;;;;;;;9.52;42.35;101482.03;4897959;28;100862;-68
2023/03/02 05:56:51;;;;;;;;;;;;;;;9.54;42.28;101485.28;4934034;28;98008;-68
2023/03/02 05:59:16;;;;;;;;;;;;;;;9.54;42.01;101488.81;4907746;28;98212;-68
2023/03/02 06:01:42;;;;;;;;;;;;;;;9.58;42.30;101492.66;4933450;28;129225;-68
2023/03/02 06:04:08;;;;;;;;;;;;;;;9.61;42.01;101488.69;4904731;28;130752;-67
2023/03/02 06:06:34;;;;;;;;;;;;;;;9.63;42.16;101491.13;4931660;28;114453;-68
2023/03/02 06:09:00;;;;;;;;;;;;;;;9.67;41.94;101498.53;4917600;28;128108;-69
2023/03/02 06:11:26;;;;;;;;;;;;;;;9.69;42.28;101499.09;4932032;28;127695;-68
2023/03/02 06:13:52;;;;;;;;;;;;;;;9.72;42.00;101495.94;4922031;28;98191;-68
2023/03/02 06:16:18;;;;;;;;;;;;;;;9.76;41.91;101493.59;4916968;28;117834;-68
2023/03/02 06:18:44;;;;;;;;;;;;;;;9.80;41.73;101505.53;4940429;28;130750;-68
2023/03/02 06:21:10;;;;;;;;;;;;;;;9.83;41.99;101505.06;4923149;28;98756;-68
2023/03/02 06:23:36;;;;;;;;;;;;;;;9.87;41.95;101506.22;4913145;28;98063;-67
2023/03/02 06:26:07;;;;;;;;;;;;;;;9.92;41.71;101509.00;4934365;28;117935;-69
2023/03/02 06:28:33;;;;;;;;;;;;;;;9.95;41.67;101505.84;4906925;28;98272;-69
2023/03/02 06:30:59;;;;;;;;;;;;;;;10.00;41.96;101502.44;4904363;28;128769;-69
2023/03/02 06:33:25;;;;;;;;;;;;;;;10.03;42.44;101500.09;4934472;28;98939;-68
2023/03/02 06:35:51;;;;;;;;;;;;;;;10.08;42.14;101505.56;4918961;28;98206;-68
2023/03/02 06:38:17;;;;;;;;;;;;;;;10.12;41.84;101511.28;4903554;28;128514;-67
2023/03/02 06:40:43;;;;;;;;;;;;;;;10.17;41.92;101508.69;4905607;28;98511;-69
2023/03/02 06:43:10;;;;;;;;;;;;;;;10.22;42.05;101511.50;4902411;28;98197;-67
2023/03/02 06:45:38;;;;;;;;;;;;;;;10.27;42.18;101505.44;4906528;28;100325;-67
2023/03/02 06:48:05;;;;;;;;;;;;;;;10.34;41.84;101516.06;4906134;28;128523;-67
2023/03/02 06:50:31;;;;;;;;;;;;;;;10.38;41.77;101507.25;4949217;28;119569;-69
2023/03/02 06:52:57;;;;;;;;;;;;;;;10.46;42.03;101514.97;4904518;28;98115;-68
2023/03/02 06:55:23;;;;;;;;;;;;;;;10.52;41.41;101513.16;4936998;28;98503;-69
2023/03/02 06:57:49;;;;;;;;;;;;;;;10.59;41.73;101523.81;4920837;28;118387;-68
2023/03/02 07:00:16;;;;;;;;;;;;;;;10.63;41.62;101515.00;4917841;28;115837;-69
2023/03/02 07:02:45;;;;;;;;;;;;;;;10.71;41.39;101511.91;4918953;28;99592;-67
2023/03/02 07:05:11;;;;;;;;;;;;;;;10.77;41.91;101510.94;4918895;28;100323;-67
2023/03/02 07:07:37;;;;;;;;;;;;;;;10.85;41.58;101512.41;4932761;28;111619;-67
2023/03/02 07:10:04;;;;;;;;;;;;;;;10.93;41.79;101508.50;4932358;28;97958;-69
2023/03/02 07:12:30;;;;;;;;;;;;;;;11.04;41.41;101502.19;4917251;28;108850;-69
2023/03/02 07:14:56;;;;;;;;;;;;;;;11.14;41.39;101493.47;4934537;28;117605;-68
2023/03/02 07:17:22;;;;;;;;;;;;;;;11.24;41.76;101493.63;4926905;28;99752;-70
2023/03/02 07:19:48;;;;;;;;;;;;;;;11.34;41.53;101493.75;4920403;28;128333;-69
2023/03/02 07:22:14;;;;;;;;;;;;;;;11.46;41.45;101502.56;4933131;28;102045;-69
2023/03/02 07:24:40;;;;;;;;;;;;;;;11.58;41.49;101501.66;4918156;28;118429;-69
2023/03/02 07:27:06;;;;;;;;;;;;;;;11.72;41.27;101506.47;4906116;28;99458;-70
2023/03/02 07:29:32;;;;;;;;;;;;;;;11.85;41.13;101502.59;4903835;28;127822;-68
2023/03/02 07:31:58;;;;;;;;;;;;;;;12.06;41.03;101505.56;4905967;28;99476;-68
2023/03/02 07:34:24;;;;;;;;;;;;;;;12.23;41.02;101499.00;4905360;28;98542;-70
2023/03/02 07:36:50;;;;;;;;;;;;;;;12.46;40.75;101500.63;4902203;28;98292;-68
2023/03/02 07:39:17;;;;;;;;;;;;;;;12.70;40.79;101503.81;4919263;28;122227;-69
2023/03/02 07:41:43;;;;;;;;;;;;;;;12.92;40.43;101494.78;4920126;28;98137;-68
2023/03/02 07:44:09;;;;;;;;;;;;;;;13.14;40.49;101497.41;4906858;28;98326;-69
2023/03/02 07:46:35;;;;;;;;;;;;;;;13.36;40.03;101500.03;4917269;28;98370;-67
2023/03/02 07:49:01;;;;;;;;;;;;;;;13.58;40.34;101505.31;4933316;28;111559;-67
2023/03/02 07:51:27;;;;;;;;;;;;;;;13.85;40.27;101500.59;4903831;28;98212;-70
2023/03/02 07:53:53;;;;;;;;;;;;;;;14.12;39.77;101503.13;4904333;28;99918;-68
2023/03/02 07:56:19;;;;;;;;;;;;;;;14.39;39.94;101499.44;4904857;28;131874;-68
2023/03/02 07:58:45;;;;;;;;;;;;;;;14.69;39.72;101498.66;4917361;28;98633;-68
2023/03/02 08:01:11;;;;;;;;;;;;;;;14.95;39.53;101497.59;4917123;28;98307;-68
2023/03/02 08:03:37;;;;;;;;;;;;;;;15.23;39.45;101501.66;4906715;28;99599;-68
2023/03/02 08:06:08;;;;;;;;;;;;;;;15.53;39.27;101502.72;4915299;28;98153;-70
2023/03/02 08:08:35;;;;;;;;;;;;;;;15.88;39.12;101504.53;4902976;28;100792;-70
2023/03/02 08:11:09;;;;;;;;;;;;;;;16.27;38.83;101500.25;4904788;28;97909;-70
2023/03/02 08:13:36;;;;;;;;;;;;;;;16.76;38.79;101500.25;4919993;28;99094;-70
2023/03/02 08:16:03;;;;;;;;;;;;;;;17.48;38.21;101496.88;4893673;28;98637;-69
2023/03/02 08:18:29;;;;;;;;;;;;;;;18.60;37.45;101485.38;4916155;28;98228;-70
2023/03/02 08:20:57;;;;;;;;;;;;;;;19.63;36.99;101498.13;4920428;28;98269;-68
2023/03/02 08:23:23;;;;;;;;;;;;;;;20.37;36.69;101495.19;4905143;28;101594;-68
2023/03/02 08:25:51;;;;;;;;;;;;;;;21.01;36.56;101495.88;4904084;28;98167;-68
2023/03/02 08:28:17;;;;;;;;;;;;;;;21.75;36.31;101503.50;4905421;28;98283;-68
2023/03/02 08:30:43;;;;;;;;;;;;;;;22.57;36.17;101503.84;4899223;28;98251;-70
2023/03/02 08:33:10;;;;;;;;;;;;;;;23.55;35.53;101504.94;4929982;28;98190;-71
2023/03/02 08:35:37;;;;;;;;;;;;;;;24.63;35.38;101501.69;4903064;28;98401;-72
2023/03/02 08:38:04;;;;;;;;;;;;;;;25.77;35.11;101507.59;4899221;28;98342;-68
2023/03/02 08:40:30;;;;;;;;;;;;;;;26.89;34.87;101510.59;4903427;28;99501;-73
2023/03/02 08:42:56;;;;;;;;;;;;;;;27.97;34.57;101503.84;4904770;28;116001;-68
2023/03/02 08:45:25;;;;;;;;;;;;;;;29.01;33.89;101512.41;4905161;28;99002;-73
2023/03/02 08:47:55;;;;;;;;;;;;;;;29.97;33.74;101509.63;4923090;28;98270;-69
2023/03/02 08:50:22;;;;;;;;;;;;;;;30.85;33.51;101500.88;4919195;28;98279;-69
2023/03/02 08:52:48;;;;;;;;;;;;;;;31.93;33.46;101497.03;4903221;28;98144;-73
2023/03/02 08:55:17;;;;;;;;;;;;;;;33.24;32.49;101490.31;4917301;28;98249;-73
2023/03/02 08:57:43;;;;;;;;;;;;;;;34.68;32.00;101494.41;4896198;28;98391;-69
2023/03/02 09:00:13;;;;;;;;;;;;;;;35.84;31.76;101490.28;4928533;28;98267;-69
2023/03/02 09:02:40;;;;;;;;;;;;;;;37.21;31.16;101478.84;4902308;28;98278;-74
2023/03/02 09:05:06;;;;;;;;;;;;;;;38.75;30.54;101480.25;4904787;28;98078;-70
2023/03/02 09:07:35;;;;;;;;;;;;;;;40.00;30.33;101473.41;4895076;28;98442;-70
2023/03/02 09:10:02;;;;;;;;;;;;;;;40.69;30.30;101465.31;4900894;28;98049;-75
2023/03/02 09:12:29;;;;;;;;;;;;;;;41.51;30.34;101458.97;4904866;28;98168;-67
2023/03/02 09:14:56;;;;;;;;;;;;;;;42.27;30.10;101454.94;4904434;28;98126;-69
2023/03/02 09:17:22;;;;;;;;;;;;;;;42.98;30.51;101453.31;4917999;28;98072;-67
2023/03/02 09:19:49;;;;;;;;;;;;;;;43.62;30.16;101448.50;4927210;28;98886;-74
2023/03/02 09:22:15;;;;;;;;;;;;;;;43.87;30.13;101448.66;4902075;28;98306;-74
2023/03/02 09:24:42;;;;;;;;;;;;;;;43.81;30.54;101445.63;4918995;28;98185;-68
2023/03/02 09:27:09;;;;;;;;;;;;;;;43.78;30.96;101441.72;4915138;28;100391;-69
2023/03/02 09:29:36;;;;;;;;;;;;;;;44.02;31.20;101438.19;4915850;28;98658;-75
2023/03/02 09:32:02;;;;;;;;;;;;;;;44.40;31.02;101437.63;4905927;28;98393;-74
2023/03/02 09:34:29;;;;;;;;;;;;;;;44.55;30.84;101434.88;4904557;28;97918;-75
2023/03/02 09:36:55;;;;;;;;;;;;;;;44.59;31.02;101429.78;4932070;28;98958;-68
2023/03/02 09:39:21;;;;;;;;;;;;;;;44.34;31.22;101426.13;4919142;28;98228;-74
2023/03/02 09:42:00;;;;;;;;;;;;;;;43.92;31.64;101419.63;4935801;28;98240;-68
2023/03/02 09:44:36;;;;;;;;;;;;;;;43.21;32.43;101418.72;4938262;28;98132;-74
2023/03/02 09:47:09;;;;;;;;;;;;;;;42.96;32.66;101407.63;4908914;28;98280;-75
2023/03/02 09:50:02;;;;;;;;;;;;;;;43.19;32.12;101414.78;4934031;28;98642;-68
2023/03/02 09:52:45;;;;;;;;;;;;;;;43.92;31.64;101417.59;4926664;28;98297;-69
2023/03/02 09:55:17;;;;;;;;;;;;;;;44.94;30.90;101413.00;4915276;28;99397;-68
2023/03/02 09:57:45;;;;;;;;;;;;;;;45.77;30.21;101409.47;4913578;28;98198;-68
2023/03/02 10:00:13;;;;;;;;;;;;;;;45.91;30.20;101402.22;4903920;28;99123;-75
2023/03/02 10:02:48;;;;;;;;;;;;;;;45.40;30.77;101400.50;4899569;28;98124;-68
2023/03/02 10:05:38;;;;;;;;;;;;;;;45.08;31.14;101402.97;4949393;28;98346;-75
2023/03/02 10:08:05;;;;;;;;;;;;;;;45.04;31.43;101388.97;4932174;28;98462;-75
2023/03/02 10:10:39;;;;;;;;;;;;;;;45.45;30.95;101397.78;4930055;28;99771;-75
2023/03/02 10:13:18;;;;;;;;;;;;;;;46.43;30.30;101380.53;4921930;28;100402;-75
2023/03/02 10:15:57;;;;;;;;;;;;;;;47.28;29.49;101388.06;4920753;28;98041;-69
2023/03/02 10:18:29;;;;;;;;;;;;;;;47.53;29.08;101380.06;4937743;28;98724;-75
2023/03/02 10:21:22;;;;;;;;;;;;;;;47.69;29.26;101377.38;4913570;28;98398;-68
2023/03/02 10:24:26;;;;;;;;;;;;;;;48.04;28.65;101370.63;4922607;28;97999;-75
2023/03/02 10:26:53;;;;;;;;;;;;;;;48.18;28.69;101368.91;4925402;28;98640;-69
2023/03/02 10:29:42;;;;;;;;;;;;;;;47.77;28.95;101366.28;4930651;28;97933;-76
2023/03/02 10:32:45;;;;;;;;;;;;;;;46.85;29.31;101352.81;4923032;28;98212;-75
2023/03/02 10:35:29;;;;;;;;;;;;;;;45.50;30.57;101353.63;4936826;28;99372;-75
2023/03/02 10:38:12;;;;;;;;;;;;;;;44.64;31.19;101348.78;4905659;28;100388;-68
2023/03/02 10:40:58;;;;;;;;;;;;;;;43.73;31.81;101343.03;4921645;28;99593;-68
2023/03/02 10:43:30;;;;;;;;;;;;;;;42.65;32.70;101335.69;4921249;28;97948;-68
2023/03/02 10:46:03;;;;;;;;;;;;;;;41.78;33.57;101333.91;4949315;28;98086;-69
2023/03/02 10:48:30;;;;;;;;;;;;;;;41.00;34.13;101326.28;4923353;28;98297;-75
2023/03/02 10:50:59;;;;;;;;;;;;;;;40.33;34.34;101329.34;4922306;28;100690;-77
2023/03/02 10:53:25;;;;;;;;;;;;;;;39.60;34.60;101332.72;4908624;28;98165;-69
2023/03/02 10:55:52;;;;;;;;;;;;;;;38.71;35.22;101330.31;4922777;28;98234;-69
2023/03/02 10:58:29;;;;;;;;;;;;;;;37.82;35.08;101329.53;4909585;28;98568;-74
2023/03/02 11:00:57;;;;;;;;;;;;;;;36.96;35.80;101319.19;4922758;28;98253;-69
2023/03/02 11:03:23;;;;;;;;;;;;;;;36.22;36.10;101311.53;4937289;28;98340;-73
2023/03/02 11:05:50;;;;;;;;;;;;;;;35.55;36.21;101307.63;4903877;28;98199;-74
2023/03/02 11:08:22;;;;;;;;;;;;;;;34.96;36.69;101317.03;4936510;28;118301;-68
2023/03/02 11:10:56;;;;;;;;;;;;;;;34.39;36.62;101315.50;4919056;28;99712;-73
2023/03/02 11:13:28;;;;;;;;;;;;;;;33.87;36.82;101308.97;4904501;28;98076;-74
2023/03/02 11:16:25;;;;;;;;;;;;;;;33.43;36.68;101308.34;4904995;28;98170;-73
2023/03/02 11:18:59;;;;;;;;;;;;;;;32.94;36.76;101298.91;4903032;28;98414;-67
2023/03/02 11:21:37;;;;;;;;;;;;;;;32.59;37.19;101307.28;4919135;28;98460;-74
2023/03/02 11:24:10;;;;;;;;;;;;;;;32.28;36.84;101303.22;4909615;28;98136;-74
2023/03/02 11:26:55;;;;;;;;;;;;;;;31.99;37.07;101303.97;4935575;28;99903;-73
2023/03/02 11:29:30;;;;;;;;;;;;;;;31.71;36.83;101296.25;4917476;28;98218;-73
2023/03/02 11:32:00;;;;;;;;;;;;;;;31.43;36.94;101296.13;4938793;28;99218;-75
2023/03/02 11:34:46;;;;;;;;;;;;;;;31.22;36.97;101303.16;4936433;28;98369;-75
2023/03/02 11:37:26;;;;;;;;;;;;;;;30.96;37.08;101301.41;4918040;28;100040;-68
2023/03/02 11:40:18;;;;;;;;;;;;;;;30.73;37.02;101284.97;4917402;28;98417;-67
2023/03/02 11:42:45;;;;;;;;;;;;;;;30.45;37.09;101295.78;4936465;28;98806;-74
2023/03/02 11:45:14;;;;;;;;;;;;;;;30.23;37.26;101294.81;4890701;28;99335;-68
2023/03/02 11:48:22;;;;;;;;;;;;;;;29.98;37.35;101294.50;4939130;28;98143;-67
2023/03/02 11:50:59;;;;;;;;;;;;;;;29.65;37.21;101282.22;4919320;28;98051;-68
2023/03/02 11:53:38;;;;;;;;;;;;;;;29.37;37.46;101282.63;4934030;28;98033;-67
2023/03/02 11:56:04;;;;;;;;;;;;;;;29.00;37.24;101266.63;4900672;28;99126;-67
2023/03/02 11:58:31;;;;;;;;;;;;;;;28.69;37.71;101270.50;4903682;28;98099;-72
2023/03/02 12:00:57;;;;;;;;;;;;;;;28.36;37.55;101269.16;4903739;28;98190;-73
2023/03/02 12:03:36;;;;;;;;;;;;;;;28.01;37.63;101263.72;4930886;28;98564;-71
2023/03/02 12:06:25;;;;;;;;;;;;;;;27.66;38.05;101264.59;4919062;28;100445;-67
2023/03/02 12:08:53;;;;;;;;;;;;;;;27.33;37.94;101262.34;4938263;28;98079;-71
2023/03/02 12:11:19;;;;;;;;;;;;;;;27.05;38.15;101261.69;4936991;28;99575;-68
2023/03/02 12:13:57;;;;;;;;;;;;;;;26.79;38.03;101265.00;4933850;28;98348;-67
2023/03/02 12:16:40;;;;;;;;;;;;;;;26.42;38.23;101268.03;4919617;28;98287;-67
2023/03/02 12:19:15;;;;;;;;;;;;;;;26.07;38.43;101263.16;4904879;28;98599;-71
2023/03/02 12:21:54;;;;;;;;;;;;;;;25.72;38.37;101265.72;4932287;28;98195;-72
2023/03/02 12:24:28;;;;;;;;;;;;;;;25.35;38.66;101262.25;4916595;28;98387;-72
2023/03/02 12:27:12;;;;;;;;;;;;;;;25.01;38.56;101258.03;4906457;28;98068;-73
2023/03/02 12:29:40;;;;;;;;;;;;;;;24.62;38.53;101258.38;4935674;28;99790;-67
2023/03/02 12:32:30;;;;;;;;;;;;;;;24.31;38.91;101250.63;4919494;28;98300;-67
2023/03/02 12:35:10;;;;;;;;;;;;;;;24.04;39.00;101257.56;4911638;28;98028;-72
2023/03/02 12:37:55;;;;;;;;;;;;;;;23.82;38.69;101246.94;4919262;28;98367;-68
2023/03/02 12:40:57;;;;;;;;;;;;;;;23.58;38.97;101255.84;4905820;28;98164;-71
2023/03/02 12:43:31;;;;;;;;;;;;;;;23.38;38.84;101249.19;4919711;28;102195;-72
2023/03/02 12:46:18;;;;;;;;;;;;;;;23.19;38.60;101238.69;4917780;28;98738;-71
2023/03/02 12:48:59;;;;;;;;;;;;;;;23.01;38.50;101247.03;4932266;28;99436;-67
2023/03/02 12:51:27;;;;;;;;;;;;;;;22.82;38.75;101232.06;4936073;28;98295;-71
2023/03/02 12:54:04;;;;;;;;;;;;;;;22.64;38.80;101236.88;4917417;28;98304;-67
2023/03/02 12:56:30;;;;;;;;;;;;;;;22.49;38.90;101235.47;4916806;28;97964;-71